createdAt,value
2022-10-05T00:00:19.128Z,101323.69
2022-10-05T00:02:46.755Z,101333.09
2022-10-05T00:05:34.292Z,101334.88
2022-10-05T00:08:22.854Z,101326.75
2022-10-05T00:10:50.181Z,101333.59
2022-10-05T00:13:20.944Z,101317.38
2022-10-05T00:15:49.346Z,101317.66
2022-10-05T00:18:18.342Z,101316.09
2022-10-05T00:20:46.736Z,101320.72
2022-10-05T00:23:20.949Z,101315.47
2022-10-05T00:25:47.875Z,101312.13
2022-10-05T00:28:29.209Z,101325.34
2022-10-05T00:30:57.425Z,101304.50
2022-10-05T00:33:24.348Z,101314.38
2022-10-05T00:35:51.357Z,101316.47
2022-10-05T00:38:17.898Z,101317.25
2022-10-05T00:40:56.200Z,101321.69
2022-10-05T00:43:34.973Z,101325.84
2022-10-05T00:46:20.325Z,101312.81
2022-10-05T00:49:15.570Z,101311.69
2022-10-05T00:51:52.185Z,101312.47
2022-10-05T00:54:27.755Z,101318.53
2022-10-05T01:01:12.973Z,101309.31
2022-10-05T01:04:01.398Z,101306.44
2022-10-05T01:07:13.198Z,101298.34
2022-10-05T01:13:47.935Z,101291.50
2022-10-05T01:16:28.987Z,101298.34
2022-10-05T01:19:11.543Z,101276.84
2022-10-05T01:21:52.776Z,101278.75
2022-10-05T01:24:48.820Z,101280.66
2022-10-05T01:27:33.869Z,101283.53
2022-10-05T01:30:12.269Z,101280.66
2022-10-05T01:32:45.643Z,101277.47
2022-10-05T01:35:41.320Z,101260.47
2022-10-05T01:38:32.420Z,101256.63
2022-10-05T01:41:11.908Z,101262.66
2022-10-05T01:43:48.237Z,101260.88
2022-10-05T01:46:28.563Z,101259.31
2022-10-05T01:48:55.981Z,101263.75
2022-10-05T01:51:31.960Z,101255.16
2022-10-05T01:54:16.605Z,101260.09
2022-10-05T01:56:46.625Z,101256.75
2022-10-05T01:59:36.561Z,101242.41
2022-10-05T02:02:08.736Z,101225.69
2022-10-05T02:05:01.418Z,101216.03
2022-10-05T02:07:54.886Z,101220.47
2022-10-05T02:10:31.004Z,101223.13
2022-10-05T02:13:03.342Z,101221.56
2022-10-05T02:15:44.044Z,101223.13
2022-10-05T02:18:21.845Z,101226.00
2022-10-05T02:20:49.925Z,101230.94
2022-10-05T02:23:28.377Z,101223.94
2022-10-05T02:25:56.569Z,101230.44
2022-10-05T02:28:31.443Z,101219.47
2022-10-05T02:31:08.887Z,101236.19
2022-10-05T02:33:36.033Z,101229.97
2022-10-05T02:36:35.622Z,101231.25
2022-10-05T02:39:09.920Z,101219.19
2022-10-05T02:41:51.285Z,101220.75
2022-10-05T02:44:40.953Z,101225.22
2022-10-05T02:47:17.699Z,101219.00
2022-10-05T02:49:44.219Z,101226.31
2022-10-05T02:52:25.991Z,101215.63
2022-10-05T02:55:49.487Z,101225.50
2022-10-05T02:58:24.869Z,101211.66
2022-10-05T03:01:03.236Z,101219.78
2022-10-05T03:03:39.360Z,101211.16
2022-10-05T03:06:20.639Z,101203.88
2022-10-05T03:08:57.617Z,101211.50
2022-10-05T03:12:00.924Z,101207.03
2022-10-05T03:14:57.142Z,101204.47
2022-10-05T03:17:34.875Z,101196.66
2022-10-05T03:20:12.409Z,101195.84
2022-10-05T03:22:49.982Z,101195.84
2022-10-05T03:25:21.393Z,101187.56
2022-10-05T03:27:54.093Z,101181.34
2022-10-05T03:30:23.805Z,101179.25
2022-10-05T03:33:26.003Z,101178.66
2022-10-05T03:36:11.856Z,101173.25
2022-10-05T03:39:00.502Z,101168.78
2022-10-05T03:41:42.878Z,101176.41
2022-10-05T03:44:27.861Z,101179.25
2022-10-05T03:47:16.781Z,101173.53
2022-10-05T03:49:56.941Z,101163.34
2022-10-05T03:52:31.547Z,101164.44
2022-10-05T03:55:05.531Z,101153.75
2022-10-05T03:57:38.747Z,101157.41
2022-10-05T04:00:13.549Z,101149.81
2022-10-05T04:03:07.817Z,101166.19
2022-10-05T04:05:47.036Z,101156.31
2022-10-05T04:08:47.896Z,101163.63
2022-10-05T04:11:44.532Z,101149.81
2022-10-05T04:14:20.577Z,101153.75
2022-10-05T04:16:52.059Z,101153.75
2022-10-05T04:19:32.605Z,101151.16
2022-10-05T04:22:03.681Z,101151.16
2022-10-05T04:24:58.875Z,101143.88
2022-10-05T04:27:39.156Z,101141.00
2022-10-05T04:30:12.593Z,101144.66
2022-10-05T04:32:55.605Z,101152.75
2022-10-05T04:36:11.117Z,101151.97
2022-10-05T04:39:06.031Z,101149.59
2022-10-05T04:41:55.735Z,101155.63
2022-10-05T04:44:35.868Z,101154.03
2022-10-05T04:47:21.260Z,101144.44
2022-10-05T04:50:26.371Z,101149.41
2022-10-05T04:53:54.357Z,101149.59
2022-10-05T04:56:41.428Z,101158.50
2022-10-05T04:59:46.026Z,101152.75
2022-10-05T05:02:39.551Z,101133.19
2022-10-05T05:05:27.193Z,101133.69
2022-10-05T05:08:16.635Z,101141.28
2022-10-05T05:10:49.253Z,101138.72
2022-10-05T05:13:34.246Z,101141.59
2022-10-05T05:16:20.108Z,101145.56
2022-10-05T05:19:07.098Z,101139.03
2022-10-05T05:21:52.937Z,101141.09
2022-10-05T05:24:41.134Z,101140.59
2022-10-05T05:27:34.685Z,101131.41
2022-10-05T05:30:15.030Z,101133.97
2022-10-05T05:33:06.457Z,101146.34
2022-10-05T05:35:44.850Z,101142.47
2022-10-05T05:38:30.873Z,101144.28
2022-10-05T05:41:17.045Z,101149.81
2022-10-05T05:44:14.410Z,101125.28
2022-10-05T05:47:03.589Z,101136.53
2022-10-05T05:49:46.300Z,101131.28
2022-10-05T05:52:22.183Z,101128.75
2022-10-05T05:54:58.262Z,101151.97
2022-10-05T05:57:34.233Z,101135.53
2022-10-05T06:00:20.131Z,101116.38
2022-10-05T06:03:18.977Z,101134.75
2022-10-05T06:05:54.788Z,101126.44
2022-10-05T06:08:49.537Z,101130.63
2022-10-05T06:11:55.763Z,101132.19
2022-10-05T06:15:02.537Z,101123.56
2022-10-05T06:17:50.287Z,101130.41
2022-10-05T06:20:28.824Z,101140.56
2022-10-05T06:23:00.442Z,101136.72
2022-10-05T06:25:35.106Z,101142.28
2022-10-05T06:28:13.012Z,101146.41
2022-10-05T06:31:10.261Z,101142.28
2022-10-05T06:33:45.660Z,101143.84
2022-10-05T06:36:40.220Z,101141.69
2022-10-05T06:39:37.765Z,101128.31
2022-10-05T06:42:34.210Z,101133.66
2022-10-05T06:45:53.184Z,101125.06
2022-10-05T06:48:55.799Z,101118.53
2022-10-05T06:51:37.926Z,101124.34
2022-10-05T06:54:25.786Z,101114.16
2022-10-05T06:57:19.394Z,101125.91
2022-10-05T07:00:01.590Z,101126.53
2022-10-05T07:02:53.641Z,101113.28
2022-10-05T07:05:34.598Z,101110.69
2022-10-05T07:08:07.287Z,101104.44
2022-10-05T07:11:11.536Z,101111.75
2022-10-05T07:13:48.540Z,101109.97
2022-10-05T07:16:32.675Z,101124.59
2022-10-05T07:19:29.251Z,101111.56
2022-10-05T07:22:34.570Z,101119.47
2022-10-05T07:25:19.010Z,101120.56
2022-10-05T07:28:06.855Z,101135.47
2022-10-05T07:30:58.844Z,101132.59
2022-10-05T07:33:38.828Z,101122.22
2022-10-05T07:36:54.643Z,101124.59
2022-10-05T07:39:58.412Z,101109.91
2022-10-05T07:42:48.765Z,101109.75
2022-10-05T07:45:45.955Z,101118.41
2022-10-05T07:49:03.326Z,101112.16
2022-10-05T07:51:38.993Z,101123.75
2022-10-05T07:54:27.404Z,101118.28
2022-10-05T07:57:13.269Z,101120.44
2022-10-05T07:59:55.441Z,101118.94
2022-10-05T08:02:48.048Z,101117.94
2022-10-05T08:05:20.077Z,101118.22
2022-10-05T08:07:52.205Z,101132.34
2022-10-05T08:10:30.103Z,101127.41
2022-10-05T08:13:30.952Z,101130.34
2022-10-05T08:16:03.135Z,101113.75
2022-10-05T08:19:07.176Z,101121.03
2022-10-05T08:21:42.279Z,101130.25
2022-10-05T08:24:35.391Z,101119.03
2022-10-05T08:27:23.476Z,101126.94
2022-10-05T08:30:02.974Z,101125.66
2022-10-05T08:32:37.949Z,101113.66
2022-10-05T08:35:25.606Z,101126.50
2022-10-05T08:37:52.997Z,101126.00
2022-10-05T08:40:21.453Z,101120.81
2022-10-05T08:43:06.447Z,101130.25
2022-10-05T08:45:38.799Z,101122.97
2022-10-05T08:48:38.682Z,101125.03
2022-10-05T08:51:22.745Z,101126.63
2022-10-05T08:54:23.299Z,101126.91
2022-10-05T08:57:06.462Z,101116.78
2022-10-05T08:59:53.429Z,101118.66
2022-10-05T09:02:42.957Z,101116.84
2022-10-05T09:05:45.959Z,101122.59
2022-10-05T09:08:47.937Z,101119.00
2022-10-05T09:11:37.242Z,101103.81
2022-10-05T09:14:18.824Z,101113.59
2022-10-05T09:17:23.134Z,101123.28
2022-10-05T09:19:59.763Z,101119.66
2022-10-05T09:22:37.906Z,101116.06
2022-10-05T09:25:51.821Z,101112.66
2022-10-05T09:28:31.666Z,101121.88
2022-10-05T09:31:06.954Z,101121.94
2022-10-05T09:33:48.914Z,101120.88
2022-10-05T09:36:36.739Z,101120.94
2022-10-05T09:39:35.620Z,101115.47
2022-10-05T09:42:29.995Z,101109.72
2022-10-05T09:45:24.397Z,101115.53
2022-10-05T09:48:15.928Z,101115.81
2022-10-05T09:51:15.121Z,101109.31
2022-10-05T09:54:06.426Z,101103.59
2022-10-05T09:56:56.170Z,101104.97
2022-10-05T10:00:00.638Z,101096.88
2022-10-05T10:02:52.337Z,101101.34
2022-10-05T10:05:36.387Z,101099.31
2022-10-05T10:08:32.194Z,101089.66
2022-10-05T10:11:07.477Z,101089.16
2022-10-05T10:13:55.801Z,101085.50
2022-10-05T10:16:40.918Z,101086.03
2022-10-05T10:19:16.470Z,101082.41
2022-10-05T10:22:17.159Z,101082.69
2022-10-05T10:25:24.899Z,101081.38
2022-10-05T10:28:32.110Z,101080.13
2022-10-05T10:31:25.159Z,101078.31
2022-10-05T10:34:09.152Z,101085.13
2022-10-05T10:37:17.545Z,101098.50
2022-10-05T10:40:23.341Z,101087.50
2022-10-05T10:43:09.837Z,101088.06
2022-10-05T10:46:07.504Z,101076.56
2022-10-05T10:49:06.627Z,101068.19
2022-10-05T10:52:05.574Z,101072.91
2022-10-05T10:55:01.370Z,101081.28
2022-10-05T10:57:49.412Z,101078.16
2022-10-05T11:00:46.908Z,101081.34
2022-10-05T11:03:33.471Z,101083.44
2022-10-05T11:06:25.593Z,101076.38
2022-10-05T11:09:10.910Z,101071.41
2022-10-05T11:12:19.524Z,101058.31
2022-10-05T11:15:08.414Z,101059.88
2022-10-05T11:18:12.777Z,101065.41
2022-10-05T11:21:02.723Z,101070.94
2022-10-05T11:23:29.197Z,101060.72
2022-10-05T11:26:17.674Z,101049.47
2022-10-05T11:29:32.536Z,101060.22
2022-10-05T11:32:20.468Z,101053.41
2022-10-05T11:35:15.143Z,101056.28
2022-10-05T11:37:59.752Z,101047.38
2022-10-05T11:40:42.960Z,101053.94
2022-10-05T11:43:18.771Z,101043.97
2022-10-05T11:45:45.184Z,101046.59
2022-10-05T11:48:20.247Z,101034.56
2022-10-05T11:51:08.598Z,101040.91
2022-10-05T11:54:18.282Z,101027.53
2022-10-05T11:56:54.509Z,101014.38
2022-10-05T11:59:26.711Z,101013.88
2022-10-05T12:01:53.150Z,101023.34
2022-10-05T12:04:41.003Z,101019.16
2022-10-05T12:07:39.190Z,101009.97
2022-10-05T12:10:33.274Z,101020.47
2022-10-05T12:13:19.311Z,101006.31
2022-10-05T12:15:53.566Z,101009.44
2022-10-05T12:18:29.992Z,101009.22
2022-10-05T12:21:06.140Z,100991.91
2022-10-05T12:23:41.830Z,100997.41
2022-10-05T12:26:14.852Z,100995.03
2022-10-05T12:28:47.296Z,100986.66
2022-10-05T12:31:40.254Z,100975.63
2022-10-05T12:34:22.768Z,100981.13
2022-10-05T12:37:05.175Z,100980.38
2022-10-05T12:39:56.621Z,100994.50
2022-10-05T12:42:41.486Z,100980.09
2022-10-05T12:45:20.531Z,100984.00
2022-10-05T12:47:54.026Z,100980.59
2022-10-05T12:50:30.632Z,100975.09
2022-10-05T12:53:31.247Z,100977.47
2022-10-05T12:56:15.334Z,100974.59
2022-10-05T12:58:51.853Z,100970.38
2022-10-05T13:01:39.951Z,100965.16
2022-10-05T13:04:38.405Z,100965.66
2022-10-05T13:07:28.503Z,100966.69
2022-10-05T13:10:44.020Z,100963.56
2022-10-05T13:13:16.207Z,100960.94
2022-10-05T13:16:04.798Z,100957.78
2022-10-05T13:18:31.395Z,100948.34
2022-10-05T13:21:06.904Z,100944.94
2022-10-05T13:23:45.080Z,100945.19
2022-10-05T13:26:25.815Z,100938.91
2022-10-05T13:29:03.351Z,100945.19
2022-10-05T13:31:43.536Z,100934.41
2022-10-05T13:34:22.467Z,100932.34
2022-10-05T13:37:03.457Z,100932.81
2022-10-05T13:39:53.103Z,100929.94
2022-10-05T13:42:35.677Z,100926.00
2022-10-05T13:45:18.816Z,100927.59
2022-10-05T13:48:17.046Z,100921.28
2022-10-05T13:51:09.797Z,100923.63
2022-10-05T13:53:49.896Z,100906.31
2022-10-05T13:56:31.102Z,100905.78
2022-10-05T13:59:23.055Z,100901.84
2022-10-05T14:02:00.737Z,100885.09
2022-10-05T14:04:30.325Z,100899.75
2022-10-05T14:07:14.017Z,100896.84
2022-10-05T14:09:48.146Z,100887.66
2022-10-05T14:12:20.449Z,100897.09
2022-10-05T14:14:55.357Z,100881.38
2022-10-05T14:17:33.984Z,100876.66
2022-10-05T14:20:03.345Z,100878.47
2022-10-05T14:22:30.044Z,100885.84
2022-10-05T14:25:02.387Z,100887.38
2022-10-05T14:27:33.705Z,100877.41
2022-10-05T14:30:12.118Z,100878.47
2022-10-05T14:33:06.713Z,100889.50
2022-10-05T14:35:52.105Z,100875.84
2022-10-05T14:38:29.328Z,100884.19
2022-10-05T14:41:15.962Z,100887.34
2022-10-05T14:44:03.989Z,100890.50
2022-10-05T14:46:32.791Z,100887.59
2022-10-05T14:49:29.109Z,100889.19
2022-10-05T14:51:56.606Z,100893.66
2022-10-05T14:54:35.142Z,100907.56
2022-10-05T14:57:12.522Z,100895.22
2022-10-05T14:59:45.930Z,100896.00
2022-10-05T15:02:37.299Z,100892.06
2022-10-05T15:05:15.217Z,100883.66
2022-10-05T15:07:45.235Z,100889.19
2022-10-05T15:10:40.538Z,100886.31
2022-10-05T15:13:14.256Z,100885.78
2022-10-05T15:15:53.899Z,100896.53
2022-10-05T15:18:27.245Z,100899.44
2022-10-05T15:21:23.815Z,100897.84
2022-10-05T15:23:57.445Z,100896.28
2022-10-05T15:26:53.002Z,100893.09
2022-10-05T15:29:55.561Z,100894.72
2022-10-05T15:32:44.022Z,100897.06
2022-10-05T15:35:29.461Z,100897.34
2022-10-05T15:38:13.228Z,100891.28
2022-10-05T15:40:43.272Z,100893.91
2022-10-05T15:43:17.526Z,100884.97
2022-10-05T15:45:53.948Z,100874.78
2022-10-05T15:48:49.238Z,100878.72
2022-10-05T15:51:40.705Z,100862.16
2022-10-05T15:54:41.704Z,100872.94
2022-10-05T15:57:33.641Z,100870.31
2022-10-05T16:00:07.714Z,100873.47
2022-10-05T16:02:41.493Z,100882.13
2022-10-05T16:05:40.236Z,100869.81
2022-10-05T16:08:34.918Z,100878.97
2022-10-05T16:11:04.728Z,100871.66
2022-10-05T16:13:50.357Z,100862.75
2022-10-05T16:16:28.785Z,100848.84
2022-10-05T16:19:14.438Z,100855.88
2022-10-05T16:21:54.030Z,100858.53
2022-10-05T16:24:49.241Z,100872.72
2022-10-05T16:27:41.556Z,100857.75
2022-10-05T16:30:16.620Z,100874.28
2022-10-05T16:33:02.325Z,100873.25
2022-10-05T16:35:38.917Z,100866.97
2022-10-05T16:38:26.828Z,100864.06
2022-10-05T16:41:28.819Z,100868.00
2022-10-05T16:44:09.989Z,100867.22
2022-10-05T16:46:42.822Z,100860.16
2022-10-05T16:49:29.028Z,100860.44
2022-10-05T16:51:57.851Z,100860.16
2022-10-05T16:54:24.382Z,100856.50
2022-10-05T16:57:12.072Z,100855.97
2022-10-05T16:59:47.560Z,100864.91
2022-10-05T17:02:46.563Z,100864.13
2022-10-05T17:05:16.208Z,100868.56
2022-10-05T17:08:01.312Z,100863.88
2022-10-05T17:10:41.886Z,100874.63
2022-10-05T17:13:13.516Z,100876.72
2022-10-05T17:16:17.891Z,100879.09
2022-10-05T17:19:09.233Z,100887.25
2022-10-05T17:22:03.482Z,100887.78
2022-10-05T17:25:09.307Z,100896.44
2022-10-05T17:27:55.557Z,100910.59
2022-10-05T17:30:58.690Z,100914.78
2022-10-05T17:33:28.967Z,100901.44
2022-10-05T17:36:12.376Z,100905.63
2022-10-05T17:38:46.920Z,100909.56
2022-10-05T17:41:30.109Z,100897.00
2022-10-05T17:44:20.971Z,100917.19
2022-10-05T17:46:59.117Z,100922.69
2022-10-05T17:49:38.198Z,100910.63
2022-10-05T17:52:41.026Z,100926.63
2022-10-05T17:55:38.327Z,100921.63
2022-10-05T17:58:23.766Z,100929.53
2022-10-05T18:01:00.595Z,100937.88
2022-10-05T18:03:42.846Z,100932.66
2022-10-05T18:06:29.431Z,100933.44
2022-10-05T18:09:22.526Z,100939.19
2022-10-05T18:12:11.009Z,100941.78
2022-10-05T18:15:01.162Z,100931.31
2022-10-05T18:17:47.111Z,100933.16
2022-10-05T18:20:34.916Z,100927.91
2022-10-05T18:23:07.398Z,100935.50
2022-10-05T18:25:40.184Z,100931.56
2022-10-05T18:28:29.071Z,100926.84
2022-10-05T18:31:04.285Z,100921.09
2022-10-05T18:33:37.897Z,100917.66
2022-10-05T18:36:33.105Z,100923.16
2022-10-05T18:39:40.912Z,100915.06
2022-10-05T18:42:33.323Z,100919.75
2022-10-05T18:45:22.542Z,100925.25
2022-10-05T18:48:11.550Z,100917.13
2022-10-05T18:50:51.398Z,100917.94
2022-10-05T18:53:44.889Z,100909.81
2022-10-05T18:56:48.271Z,100907.47
2022-10-05T18:59:40.527Z,100905.88
2022-10-05T19:02:20.140Z,100903.00
2022-10-05T19:05:35.820Z,100894.63
2022-10-05T19:08:25.109Z,100894.06
2022-10-05T19:11:01.604Z,100905.31
2022-10-05T19:13:34.898Z,100893.81
2022-10-05T19:16:34.999Z,100883.06
2022-10-05T19:19:16.609Z,100894.06
2022-10-05T19:22:04.892Z,100902.19
2022-10-05T19:24:37.532Z,100890.16
2022-10-05T19:27:22.875Z,100899.31
2022-10-05T19:30:13.758Z,100907.44
2022-10-05T19:32:56.153Z,100898.50
2022-10-05T19:36:02.074Z,100897.19
2022-10-05T19:38:34.401Z,100901.66
2022-10-05T19:41:22.524Z,100910.81
2022-10-05T19:44:07.473Z,100905.06
2022-10-05T19:47:10.690Z,100903.47
2022-10-05T19:49:47.732Z,100907.41
2022-10-05T19:52:50.255Z,100914.22
2022-10-05T19:55:26.333Z,100909.75
2022-10-05T19:57:55.216Z,100901.63
2022-10-05T20:00:33.883Z,100916.03
2022-10-05T20:03:18.886Z,100914.19
2022-10-05T20:05:45.745Z,100916.53
2022-10-05T20:08:17.429Z,100904.47
2022-10-05T20:10:44.868Z,100929.34
2022-10-05T20:13:20.598Z,100922.56
2022-10-05T20:16:45.064Z,100912.34
2022-10-05T20:19:53.424Z,100924.13
2022-10-05T20:22:22.854Z,100934.59
2022-10-05T20:24:53.683Z,100930.13
2022-10-05T20:27:42.247Z,100938.00
2022-10-05T20:30:11.972Z,100928.06
2022-10-05T20:32:38.663Z,100932.22
2022-10-05T20:35:06.896Z,100931.19
2022-10-05T20:37:33.855Z,100916.50
2022-10-05T20:40:00.389Z,100928.31
2022-10-05T20:42:26.949Z,100893.69
2022-10-05T20:44:56.814Z,100926.47
2022-10-05T20:47:24.807Z,100935.13
2022-10-05T20:49:53.329Z,100946.91
2022-10-05T20:52:20.915Z,100946.41
2022-10-05T20:54:47.976Z,100944.03
2022-10-05T20:57:14.585Z,100926.25
2022-10-05T20:59:41.140Z,100927.03
2022-10-05T21:02:07.691Z,100943.00
2022-10-05T21:04:41.424Z,100925.72
2022-10-05T21:07:08.503Z,100951.66
2022-10-05T21:09:37.895Z,100948.25
2022-10-05T21:12:04.751Z,100959.25
2022-10-05T21:14:34.137Z,100950.06
2022-10-05T21:17:01.923Z,100943.25
2022-10-05T21:19:29.893Z,100943.25
2022-10-05T21:21:59.257Z,100952.16
2022-10-05T21:24:25.910Z,100947.72
2022-10-05T21:31:12.111Z,100946.16
2022-10-05T21:33:38.694Z,100949.81
2022-10-05T21:36:05.381Z,100959.25
2022-10-05T21:38:31.974Z,100968.66
2022-10-05T21:40:58.651Z,100959.47
2022-10-05T21:43:25.669Z,100961.06
2022-10-05T21:45:54.706Z,100981.22
2022-10-05T21:48:22.288Z,100983.84
2022-10-05T21:50:48.781Z,100984.41
2022-10-05T21:53:18.380Z,100983.06
2022-10-05T21:55:48.884Z,100980.19
2022-10-05T21:58:17.147Z,100982.81
2022-10-05T22:00:43.724Z,100992.50
2022-10-05T22:03:10.590Z,100984.66
2022-10-05T22:05:37.117Z,100981.47
2022-10-05T22:08:04.365Z,100998.53
2022-10-05T22:10:32.234Z,100990.16
2022-10-05T22:13:03.705Z,100996.44
2022-10-05T22:15:31.396Z,100996.44
2022-10-05T22:17:59.678Z,100992.25
2022-10-05T22:20:26.874Z,101012.69
2022-10-05T22:22:53.970Z,100990.63
2022-10-05T22:25:21.558Z,101009.03
2022-10-05T22:27:49.671Z,101007.44
2022-10-05T22:30:16.439Z,101012.41
2022-10-05T22:32:43.911Z,101017.91
2022-10-05T22:35:11.725Z,101015.03
2022-10-05T22:37:38.678Z,101023.16
2022-10-05T22:40:07.512Z,101028.94
2022-10-05T22:42:34.638Z,101030.50
2022-10-05T22:45:01.200Z,101037.81
2022-10-05T22:47:27.764Z,101036.53
2022-10-05T22:49:55.126Z,101034.44
2022-10-05T22:52:21.590Z,101045.97
2022-10-05T22:54:48.222Z,101039.69
2022-10-05T22:57:14.959Z,101038.38
2022-10-05T22:59:41.851Z,101035.00
2022-10-05T23:02:08.421Z,101032.09
2022-10-05T23:04:34.911Z,101041.00
2022-10-05T23:07:01.575Z,101044.69
2022-10-05T23:09:28.070Z,101038.91
2022-10-05T23:11:54.560Z,101049.41
2022-10-05T23:14:21.259Z,101046.25
2022-10-05T23:16:47.952Z,101048.88
2022-10-05T23:19:14.511Z,101036.06
2022-10-05T23:21:41.376Z,101049.16
2022-10-05T23:24:08.380Z,101048.34
2022-10-05T23:26:34.966Z,101051.25
2022-10-05T23:29:01.515Z,101057.56
2022-10-05T23:31:30.756Z,101061.47
2022-10-05T23:33:57.253Z,101058.63
2022-10-05T23:36:32.173Z,101069.59
2022-10-05T23:38:59.962Z,101069.88
2022-10-05T23:41:26.973Z,101065.94
2022-10-05T23:43:55.152Z,101073.81
2022-10-05T23:46:22.135Z,101078.03
2022-10-05T23:48:50.323Z,101088.22
2022-10-05T23:51:17.566Z,101115.22
2022-10-05T23:53:44.517Z,101152.69
